sensor_id;sensor_type;location;lat;lon;timestamp;P1;durP1;ratioP1;P2;durP2;ratioP2
64199;SDS011;50516;52.272;5.136;2022-12-10T00:00:22;58.58;;;30.77;;
64199;SDS011;50516;52.272;5.136;2022-12-10T00:02:47;62.95;;;31.17;;
64199;SDS011;50516;52.272;5.136;2022-12-10T00:05:12;55.08;;;31.55;;
64199;SDS011;50516;52.272;5.136;2022-12-10T00:07:38;60.83;;;30.00;;
64199;SDS011;50516;52.272;5.136;2022-12-10T00:10:03;53.13;;;30.05;;
64199;SDS011;50516;52.272;5.136;2022-12-10T00:12:29;62.47;;;31.85;;
64199;SDS011;50516;52.272;5.136;2022-12-10T00:14:54;59.90;;;30.08;;
64199;SDS011;50516;52.272;5.136;2022-12-10T00:17:20;58.38;;;30.95;;
64199;SDS011;50516;52.272;5.136;2022-12-10T00:19:45;59.83;;;31.90;;
64199;SDS011;50516;52.272;5.136;2022-12-10T00:22:10;53.08;;;28.90;;
64199;SDS011;50516;52.272;5.136;2022-12-10T00:24:36;55.10;;;28.90;;
64199;SDS011;50516;52.272;5.136;2022-12-10T00:27:01;59.90;;;31.17;;
64199;SDS011;50516;52.272;5.136;2022-12-10T00:29:26;58.50;;;29.95;;
64199;SDS011;50516;52.272;5.136;2022-12-10T00:31:52;61.80;;;31.52;;
64199;SDS011;50516;52.272;5.136;2022-12-10T00:34:17;57.97;;;32.58;;
64199;SDS011;50516;52.272;5.136;2022-12-10T00:36:44;61.83;;;30.30;;
64199;SDS011;50516;52.272;5.136;2022-12-10T00:39:14;57.53;;;30.35;;
64199;SDS011;50516;52.272;5.136;2022-12-10T00:41:42;70.57;;;32.90;;
64199;SDS011;50516;52.272;5.136;2022-12-10T00:44:07;62.78;;;33.35;;
64199;SDS011;50516;52.272;5.136;2022-12-10T00:46:33;56.42;;;29.85;;
64199;SDS011;50516;52.272;5.136;2022-12-10T00:48:59;57.63;;;30.88;;
64199;SDS011;50516;52.272;5.136;2022-12-10T00:51:25;58.33;;;30.75;;
64199;SDS011;50516;52.272;5.136;2022-12-10T00:53:52;60.13;;;30.80;;
64199;SDS011;50516;52.272;5.136;2022-12-10T00:56:19;61.53;;;30.85;;
64199;SDS011;50516;52.272;5.136;2022-12-10T00:58:48;61.22;;;30.30;;
64199;SDS011;50516;52.272;5.136;2022-12-10T01:01:21;64.80;;;30.45;;
64199;SDS011;50516;52.272;5.136;2022-12-10T01:03:59;66.13;;;32.25;;
64199;SDS011;50516;52.272;5.136;2022-12-10T01:06:49;63.13;;;30.45;;
64199;SDS011;50516;52.272;5.136;2022-12-10T01:09:17;60.63;;;30.42;;
64199;SDS011;50516;52.272;5.136;2022-12-10T01:11:48;64.97;;;31.67;;
64199;SDS011;50516;52.272;5.136;2022-12-10T01:14:19;56.95;;;28.73;;
64199;SDS011;50516;52.272;5.136;2022-12-10T01:16:48;63.40;;;31.13;;
64199;SDS011;50516;52.272;5.136;2022-12-10T01:19:15;67.55;;;30.17;;
64199;SDS011;50516;52.272;5.136;2022-12-10T01:21:40;60.83;;;30.50;;
64199;SDS011;50516;52.272;5.136;2022-12-10T01:24:06;62.87;;;31.67;;
64199;SDS011;50516;52.272;5.136;2022-12-10T01:26:32;67.38;;;29.73;;
64199;SDS011;50516;52.272;5.136;2022-12-10T01:28:59;64.20;;;30.45;;
64199;SDS011;50516;52.272;5.136;2022-12-10T01:31:29;57.92;;;28.08;;
64199;SDS011;50516;52.272;5.136;2022-12-10T01:33:59;66.60;;;29.73;;
64199;SDS011;50516;52.272;5.136;2022-12-10T01:36:26;62.50;;;29.02;;
64199;SDS011;50516;52.272;5.136;2022-12-10T01:38:56;61.75;;;29.17;;
64199;SDS011;50516;52.272;5.136;2022-12-10T01:41:33;64.37;;;29.03;;
64199;SDS011;50516;52.272;5.136;2022-12-10T01:46:38;98.93;;;27.97;;
64199;SDS011;50516;52.272;5.136;2022-12-10T01:49:06;55.40;;;25.80;;
64199;SDS011;50516;52.272;5.136;2022-12-10T01:51:35;68.15;;;26.17;;
64199;SDS011;50516;52.272;5.136;2022-12-10T01:54:02;80.77;;;24.77;;
64199;SDS011;50516;52.272;5.136;2022-12-10T01:56:29;56.72;;;22.52;;
64199;SDS011;50516;52.272;5.136;2022-12-10T01:59:00;53.00;;;23.10;;
64199;SDS011;50516;52.272;5.136;2022-12-10T02:01:28;53.77;;;25.23;;
64199;SDS011;50516;52.272;5.136;2022-12-10T02:04:47;82.32;;;24.80;;
64199;SDS011;50516;52.272;5.136;2022-12-10T02:07:32;56.08;;;25.73;;
64199;SDS011;50516;52.272;5.136;2022-12-10T02:10:24;82.88;;;26.42;;
64199;SDS011;50516;52.272;5.136;2022-12-10T02:15:36;58.17;;;24.63;;
64199;SDS011;50516;52.272;5.136;2022-12-10T02:18:13;72.07;;;28.30;;
64199;SDS011;50516;52.272;5.136;2022-12-10T02:20:46;55.80;;;26.92;;
64199;SDS011;50516;52.272;5.136;2022-12-10T02:23:17;53.17;;;25.30;;
64199;SDS011;50516;52.272;5.136;2022-12-10T02:25:56;61.95;;;28.17;;
64199;SDS011;50516;52.272;5.136;2022-12-10T02:31:17;58.53;;;28.30;;
64199;SDS011;50516;52.272;5.136;2022-12-10T02:33:47;56.78;;;27.80;;
64199;SDS011;50516;52.272;5.136;2022-12-10T02:36:16;86.57;;;27.27;;
64199;SDS011;50516;52.272;5.136;2022-12-10T02:38:44;65.15;;;28.65;;
64199;SDS011;50516;52.272;5.136;2022-12-10T02:41:16;71.90;;;28.52;;
64199;SDS011;50516;52.272;5.136;2022-12-10T02:43:48;69.65;;;28.83;;
64199;SDS011;50516;52.272;5.136;2022-12-10T02:46:18;132.80;;;32.25;;
64199;SDS011;50516;52.272;5.136;2022-12-10T02:48:45;76.40;;;30.45;;
64199;SDS011;50516;52.272;5.136;2022-12-10T02:51:12;75.20;;;30.05;;
64199;SDS011;50516;52.272;5.136;2022-12-10T02:53:41;71.90;;;29.08;;
64199;SDS011;50516;52.272;5.136;2022-12-10T02:56:23;65.60;;;29.60;;
64199;SDS011;50516;52.272;5.136;2022-12-10T02:59:19;66.80;;;29.27;;
64199;SDS011;50516;52.272;5.136;2022-12-10T03:05:02;79.75;;;29.00;;
64199;SDS011;50516;52.272;5.136;2022-12-10T03:07:35;69.10;;;29.38;;
64199;SDS011;50516;52.272;5.136;2022-12-10T03:10:07;67.05;;;29.25;;
64199;SDS011;50516;52.272;5.136;2022-12-10T03:12:39;74.60;;;31.63;;
64199;SDS011;50516;52.272;5.136;2022-12-10T03:15:11;68.63;;;29.83;;
64199;SDS011;50516;52.272;5.136;2022-12-10T03:17:39;69.32;;;29.85;;
64199;SDS011;50516;52.272;5.136;2022-12-10T03:20:11;77.65;;;31.75;;
64199;SDS011;50516;52.272;5.136;2022-12-10T03:22:43;100.30;;;30.90;;
64199;SDS011;50516;52.272;5.136;2022-12-10T03:25:13;75.40;;;31.38;;
64199;SDS011;50516;52.272;5.136;2022-12-10T03:27:43;76.85;;;32.78;;
64199;SDS011;50516;52.272;5.136;2022-12-10T03:30:15;86.20;;;30.65;;
64199;SDS011;50516;52.272;5.136;2022-12-10T03:32:40;79.57;;;33.15;;
64199;SDS011;50516;52.272;5.136;2022-12-10T03:35:08;74.57;;;32.65;;
64199;SDS011;50516;52.272;5.136;2022-12-10T03:37:34;88.93;;;31.58;;
64199;SDS011;50516;52.272;5.136;2022-12-10T03:40:01;80.30;;;32.95;;
64199;SDS011;50516;52.272;5.136;2022-12-10T03:42:28;84.35;;;33.17;;
64199;SDS011;50516;52.272;5.136;2022-12-10T03:44:53;79.05;;;32.45;;
64199;SDS011;50516;52.272;5.136;2022-12-10T03:47:19;100.65;;;35.30;;
64199;SDS011;50516;52.272;5.136;2022-12-10T03:49:45;97.68;;;36.55;;
64199;SDS011;50516;52.272;5.136;2022-12-10T03:52:10;96.45;;;35.88;;
64199;SDS011;50516;52.272;5.136;2022-12-10T03:54:38;78.88;;;35.38;;
64199;SDS011;50516;52.272;5.136;2022-12-10T03:57:03;100.60;;;34.97;;
64199;SDS011;50516;52.272;5.136;2022-12-10T03:59:29;79.57;;;33.97;;
64199;SDS011;50516;52.272;5.136;2022-12-10T04:01:54;89.93;;;37.28;;
64199;SDS011;50516;52.272;5.136;2022-12-10T04:04:19;75.65;;;32.88;;
64199;SDS011;50516;52.272;5.136;2022-12-10T04:06:45;83.28;;;34.55;;
64199;SDS011;50516;52.272;5.136;2022-12-10T04:09:12;75.18;;;32.35;;
64199;SDS011;50516;52.272;5.136;2022-12-10T04:11:42;103.20;;;35.33;;
64199;SDS011;50516;52.272;5.136;2022-12-10T04:14:12;91.15;;;34.35;;
64199;SDS011;50516;52.272;5.136;2022-12-10T04:16:57;82.40;;;35.63;;
64199;SDS011;50516;52.272;5.136;2022-12-10T04:19:22;81.65;;;34.72;;
64199;SDS011;50516;52.272;5.136;2022-12-10T04:21:48;95.65;;;32.67;;
64199;SDS011;50516;52.272;5.136;2022-12-10T04:24:33;78.55;;;32.10;;
64199;SDS011;50516;52.272;5.136;2022-12-10T04:27:26;87.32;;;33.63;;
64199;SDS011;50516;52.272;5.136;2022-12-10T04:30:01;99.25;;;33.13;;
64199;SDS011;50516;52.272;5.136;2022-12-10T04:32:27;82.60;;;31.65;;
64199;SDS011;50516;52.272;5.136;2022-12-10T04:34:53;66.68;;;29.90;;
64199;SDS011;50516;52.272;5.136;2022-12-10T04:37:19;72.18;;;32.05;;
64199;SDS011;50516;52.272;5.136;2022-12-10T04:39:45;67.53;;;27.83;;
64199;SDS011;50516;52.272;5.136;2022-12-10T04:42:11;64.95;;;29.42;;
64199;SDS011;50516;52.272;5.136;2022-12-10T04:44:40;62.58;;;28.63;;
64199;SDS011;50516;52.272;5.136;2022-12-10T04:47:06;71.70;;;30.40;;
64199;SDS011;50516;52.272;5.136;2022-12-10T04:49:33;70.90;;;30.45;;
64199;SDS011;50516;52.272;5.136;2022-12-10T04:51:59;96.55;;;33.05;;
64199;SDS011;50516;52.272;5.136;2022-12-10T04:54:25;71.38;;;29.55;;
64199;SDS011;50516;52.272;5.136;2022-12-10T04:56:50;71.28;;;30.98;;
64199;SDS011;50516;52.272;5.136;2022-12-10T04:59:16;75.68;;;31.48;;
64199;SDS011;50516;52.272;5.136;2022-12-10T05:01:42;102.57;;;30.77;;
64199;SDS011;50516;52.272;5.136;2022-12-10T05:04:09;99.60;;;34.72;;
64199;SDS011;50516;52.272;5.136;2022-12-10T05:06:37;131.02;;;37.47;;
64199;SDS011;50516;52.272;5.136;2022-12-10T05:09:03;80.82;;;34.38;;
64199;SDS011;50516;52.272;5.136;2022-12-10T05:11:30;83.43;;;32.65;;
64199;SDS011;50516;52.272;5.136;2022-12-10T05:13:56;81.68;;;31.58;;
64199;SDS011;50516;52.272;5.136;2022-12-10T05:16:24;72.47;;;31.52;;
64199;SDS011;50516;52.272;5.136;2022-12-10T05:18:52;64.65;;;30.55;;
64199;SDS011;50516;52.272;5.136;2022-12-10T05:21:19;73.95;;;32.67;;
64199;SDS011;50516;52.272;5.136;2022-12-10T05:23:51;63.08;;;31.40;;
64199;SDS011;50516;52.272;5.136;2022-12-10T05:26:24;73.18;;;29.27;;
64199;SDS011;50516;52.272;5.136;2022-12-10T05:28:53;77.10;;;29.55;;
64199;SDS011;50516;52.272;5.136;2022-12-10T05:31:24;98.20;;;29.77;;
64199;SDS011;50516;52.272;5.136;2022-12-10T05:33:52;80.22;;;31.05;;
64199;SDS011;50516;52.272;5.136;2022-12-10T05:36:23;60.13;;;28.38;;
64199;SDS011;50516;52.272;5.136;2022-12-10T05:38:50;57.88;;;28.15;;
64199;SDS011;50516;52.272;5.136;2022-12-10T05:41:17;71.38;;;27.85;;
64199;SDS011;50516;52.272;5.136;2022-12-10T05:43:45;59.88;;;25.63;;
64199;SDS011;50516;52.272;5.136;2022-12-10T05:46:12;62.05;;;27.75;;
64199;SDS011;50516;52.272;5.136;2022-12-10T05:48:39;59.25;;;26.50;;
64199;SDS011;50516;52.272;5.136;2022-12-10T05:51:06;59.83;;;26.87;;
64199;SDS011;50516;52.272;5.136;2022-12-10T05:53:36;57.10;;;24.93;;
64199;SDS011;50516;52.272;5.136;2022-12-10T05:56:03;55.95;;;23.73;;
64199;SDS011;50516;52.272;5.136;2022-12-10T05:58:34;91.95;;;27.63;;
64199;SDS011;50516;52.272;5.136;2022-12-10T06:01:00;56.97;;;24.77;;
64199;SDS011;50516;52.272;5.136;2022-12-10T06:03:28;54.80;;;24.48;;
64199;SDS011;50516;52.272;5.136;2022-12-10T06:05:53;55.13;;;24.58;;
64199;SDS011;50516;52.272;5.136;2022-12-10T06:08:19;57.97;;;26.27;;
64199;SDS011;50516;52.272;5.136;2022-12-10T06:10:45;59.60;;;25.00;;
64199;SDS011;50516;52.272;5.136;2022-12-10T06:13:13;52.70;;;25.98;;
64199;SDS011;50516;52.272;5.136;2022-12-10T06:15:39;64.15;;;25.42;;
64199;SDS011;50516;52.272;5.136;2022-12-10T06:18:07;54.75;;;26.98;;
64199;SDS011;50516;52.272;5.136;2022-12-10T06:20:42;86.50;;;25.33;;
64199;SDS011;50516;52.272;5.136;2022-12-10T06:23:07;54.80;;;25.58;;
64199;SDS011;50516;52.272;5.136;2022-12-10T06:25:33;62.17;;;23.70;;
64199;SDS011;50516;52.272;5.136;2022-12-10T06:27:58;53.53;;;25.15;;
64199;SDS011;50516;52.272;5.136;2022-12-10T06:30:24;48.72;;;24.42;;
64199;SDS011;50516;52.272;5.136;2022-12-10T06:32:49;70.25;;;25.42;;
64199;SDS011;50516;52.272;5.136;2022-12-10T06:35:15;90.63;;;28.17;;
64199;SDS011;50516;52.272;5.136;2022-12-10T06:37:40;49.72;;;22.70;;
64199;SDS011;50516;52.272;5.136;2022-12-10T06:40:06;51.35;;;25.40;;
64199;SDS011;50516;52.272;5.136;2022-12-10T06:42:34;56.90;;;27.83;;
64199;SDS011;50516;52.272;5.136;2022-12-10T06:45:00;54.95;;;24.90;;
64199;SDS011;50516;52.272;5.136;2022-12-10T06:47:25;77.78;;;27.63;;
64199;SDS011;50516;52.272;5.136;2022-12-10T06:49:50;54.88;;;26.25;;
64199;SDS011;50516;52.272;5.136;2022-12-10T06:52:16;58.00;;;25.70;;
64199;SDS011;50516;52.272;5.136;2022-12-10T06:54:41;99.25;;;28.42;;
64199;SDS011;50516;52.272;5.136;2022-12-10T06:57:07;55.70;;;27.40;;
64199;SDS011;50516;52.272;5.136;2022-12-10T06:59:32;51.53;;;27.15;;
64199;SDS011;50516;52.272;5.136;2022-12-10T07:01:58;51.00;;;25.17;;
64199;SDS011;50516;52.272;5.136;2022-12-10T07:04:23;51.13;;;25.08;;
64199;SDS011;50516;52.272;5.136;2022-12-10T07:06:49;51.67;;;24.23;;
64199;SDS011;50516;52.272;5.136;2022-12-10T07:09:14;52.88;;;23.65;;
64199;SDS011;50516;52.272;5.136;2022-12-10T07:11:41;54.83;;;24.17;;
64199;SDS011;50516;52.272;5.136;2022-12-10T07:14:06;57.13;;;23.73;;
64199;SDS011;50516;52.272;5.136;2022-12-10T07:16:32;56.72;;;23.90;;
64199;SDS011;50516;52.272;5.136;2022-12-10T07:18:59;49.90;;;22.98;;
64199;SDS011;50516;52.272;5.136;2022-12-10T07:21:26;47.20;;;24.63;;
64199;SDS011;50516;52.272;5.136;2022-12-10T07:23:57;62.83;;;22.98;;
64199;SDS011;50516;52.272;5.136;2022-12-10T07:26:25;62.17;;;22.30;;
64199;SDS011;50516;52.272;5.136;2022-12-10T07:28:53;43.77;;;22.70;;
64199;SDS011;50516;52.272;5.136;2022-12-10T07:31:19;50.65;;;22.60;;
64199;SDS011;50516;52.272;5.136;2022-12-10T07:33:46;53.08;;;22.08;;
64199;SDS011;50516;52.272;5.136;2022-12-10T07:36:11;53.63;;;22.70;;
64199;SDS011;50516;52.272;5.136;2022-12-10T07:38:37;54.13;;;24.17;;
64199;SDS011;50516;52.272;5.136;2022-12-10T07:41:07;46.40;;;23.27;;
64199;SDS011;50516;52.272;5.136;2022-12-10T07:43:35;47.95;;;20.98;;
64199;SDS011;50516;52.272;5.136;2022-12-10T07:46:08;41.17;;;22.17;;
64199;SDS011;50516;52.272;5.136;2022-12-10T07:48:37;42.35;;;21.98;;
64199;SDS011;50516;52.272;5.136;2022-12-10T07:51:03;45.08;;;21.83;;
64199;SDS011;50516;52.272;5.136;2022-12-10T07:53:30;40.63;;;22.02;;
64199;SDS011;50516;52.272;5.136;2022-12-10T07:55:55;40.80;;;22.33;;
64199;SDS011;50516;52.272;5.136;2022-12-10T07:58:21;57.67;;;24.40;;
64199;SDS011;50516;52.272;5.136;2022-12-10T08:00:46;49.85;;;22.80;;
64199;SDS011;50516;52.272;5.136;2022-12-10T08:03:11;60.40;;;24.08;;
64199;SDS011;50516;52.272;5.136;2022-12-10T08:05:37;52.03;;;24.27;;
64199;SDS011;50516;52.272;5.136;2022-12-10T08:08:02;94.88;;;22.33;;
64199;SDS011;50516;52.272;5.136;2022-12-10T08:10:28;44.83;;;22.25;;
64199;SDS011;50516;52.272;5.136;2022-12-10T08:12:53;43.08;;;22.73;;
64199;SDS011;50516;52.272;5.136;2022-12-10T08:15:18;82.10;;;23.33;;
64199;SDS011;50516;52.272;5.136;2022-12-10T08:17:44;116.70;;;24.00;;
64199;SDS011;50516;52.272;5.136;2022-12-10T08:20:09;43.20;;;23.38;;
64199;SDS011;50516;52.272;5.136;2022-12-10T08:22:35;50.83;;;23.23;;
64199;SDS011;50516;52.272;5.136;2022-12-10T08:25:00;52.80;;;23.80;;
64199;SDS011;50516;52.272;5.136;2022-12-10T08:27:26;41.08;;;21.90;;
64199;SDS011;50516;52.272;5.136;2022-12-10T08:29:52;40.17;;;21.35;;
64199;SDS011;50516;52.272;5.136;2022-12-10T08:32:17;36.10;;;21.00;;
64199;SDS011;50516;52.272;5.136;2022-12-10T08:34:42;41.63;;;22.45;;
64199;SDS011;50516;52.272;5.136;2022-12-10T08:37:08;42.58;;;22.40;;
64199;SDS011;50516;52.272;5.136;2022-12-10T08:39:33;33.30;;;18.17;;
64199;SDS011;50516;52.272;5.136;2022-12-10T08:41:58;39.40;;;21.10;;
64199;SDS011;50516;52.272;5.136;2022-12-10T08:44:24;38.95;;;21.75;;
64199;SDS011;50516;52.272;5.136;2022-12-10T08:46:49;46.25;;;21.00;;
64199;SDS011;50516;52.272;5.136;2022-12-10T08:49:15;52.90;;;22.30;;
64199;SDS011;50516;52.272;5.136;2022-12-10T08:51:40;38.58;;;20.20;;
64199;SDS011;50516;52.272;5.136;2022-12-10T08:54:05;38.47;;;20.25;;
64199;SDS011;50516;52.272;5.136;2022-12-10T08:56:30;81.45;;;21.52;;
64199;SDS011;50516;52.272;5.136;2022-12-10T08:58:56;47.70;;;22.48;;
64199;SDS011;50516;52.272;5.136;2022-12-10T09:01:22;41.75;;;22.65;;
64199;SDS011;50516;52.272;5.136;2022-12-10T09:03:47;44.35;;;21.70;;
64199;SDS011;50516;52.272;5.136;2022-12-10T09:06:13;43.05;;;22.30;;
64199;SDS011;50516;52.272;5.136;2022-12-10T09:08:41;42.20;;;23.50;;
64199;SDS011;50516;52.272;5.136;2022-12-10T09:11:11;41.65;;;21.77;;
64199;SDS011;50516;52.272;5.136;2022-12-10T09:13:39;43.35;;;22.50;;
64199;SDS011;50516;52.272;5.136;2022-12-10T09:16:04;43.08;;;22.83;;
64199;SDS011;50516;52.272;5.136;2022-12-10T09:18:30;40.47;;;23.50;;
64199;SDS011;50516;52.272;5.136;2022-12-10T09:21:05;38.10;;;20.13;;
64199;SDS011;50516;52.272;5.136;2022-12-10T09:23:35;41.28;;;23.83;;
64199;SDS011;50516;52.272;5.136;2022-12-10T09:26:04;50.55;;;23.75;;
64199;SDS011;50516;52.272;5.136;2022-12-10T09:28:33;52.90;;;23.63;;
64199;SDS011;50516;52.272;5.136;2022-12-10T09:30:59;51.40;;;23.23;;
64199;SDS011;50516;52.272;5.136;2022-12-10T09:33:26;47.20;;;24.13;;
64199;SDS011;50516;52.272;5.136;2022-12-10T09:35:52;44.75;;;23.65;;
64199;SDS011;50516;52.272;5.136;2022-12-10T09:38:18;54.55;;;26.38;;
64199;SDS011;50516;52.272;5.136;2022-12-10T09:40:49;54.53;;;25.33;;
64199;SDS011;50516;52.272;5.136;2022-12-10T09:51:40;53.03;;;23.88;;
64199;SDS011;50516;52.272;5.136;2022-12-10T09:54:18;59.03;;;24.80;;
64199;SDS011;50516;52.272;5.136;2022-12-10T09:56:48;45.00;;;21.98;;
64199;SDS011;50516;52.272;5.136;2022-12-10T09:59:28;48.85;;;24.85;;
64199;SDS011;50516;52.272;5.136;2022-12-10T10:02:18;46.25;;;22.77;;
64199;SDS011;50516;52.272;5.136;2022-12-10T10:04:44;46.13;;;24.90;;
64199;SDS011;50516;52.272;5.136;2022-12-10T10:07:20;50.22;;;24.63;;
64199;SDS011;50516;52.272;5.136;2022-12-10T10:09:49;43.80;;;23.92;;
64199;SDS011;50516;52.272;5.136;2022-12-10T10:12:20;55.95;;;26.92;;
64199;SDS011;50516;52.272;5.136;2022-12-10T10:14:45;53.17;;;26.63;;
64199;SDS011;50516;52.272;5.136;2022-12-10T10:17:12;54.60;;;25.92;;
64199;SDS011;50516;52.272;5.136;2022-12-10T10:19:47;60.33;;;26.92;;
64199;SDS011;50516;52.272;5.136;2022-12-10T10:22:14;52.70;;;27.60;;
64199;SDS011;50516;52.272;5.136;2022-12-10T10:24:40;53.97;;;27.33;;
64199;SDS011;50516;52.272;5.136;2022-12-10T10:27:12;53.47;;;26.88;;
64199;SDS011;50516;52.272;5.136;2022-12-10T10:30:00;54.45;;;26.08;;
64199;SDS011;50516;52.272;5.136;2022-12-10T10:35:03;58.67;;;27.85;;
64199;SDS011;50516;52.272;5.136;2022-12-10T10:40:00;61.92;;;29.20;;
64199;SDS011;50516;52.272;5.136;2022-12-10T10:44:59;58.40;;;28.23;;
64199;SDS011;50516;52.272;5.136;2022-12-10T10:47:29;60.58;;;27.55;;
64199;SDS011;50516;52.272;5.136;2022-12-10T10:49:59;59.70;;;28.60;;
64199;SDS011;50516;52.272;5.136;2022-12-10T10:52:30;67.15;;;29.90;;
64199;SDS011;50516;52.272;5.136;2022-12-10T10:55:00;64.18;;;31.20;;
64199;SDS011;50516;52.272;5.136;2022-12-10T10:57:35;57.13;;;28.13;;
64199;SDS011;50516;52.272;5.136;2022-12-10T11:02:33;62.58;;;27.42;;
64199;SDS011;50516;52.272;5.136;2022-12-10T11:05:15;67.25;;;29.65;;
64199;SDS011;50516;52.272;5.136;2022-12-10T11:07:56;65.22;;;30.60;;
64199;SDS011;50516;52.272;5.136;2022-12-10T11:10:34;59.55;;;27.55;;
64199;SDS011;50516;52.272;5.136;2022-12-10T11:13:18;55.55;;;28.90;;
64199;SDS011;50516;52.272;5.136;2022-12-10T11:15:54;59.92;;;28.65;;
64199;SDS011;50516;52.272;5.136;2022-12-10T11:18:25;65.55;;;29.20;;
64199;SDS011;50516;52.272;5.136;2022-12-10T11:20:57;74.18;;;31.42;;
64199;SDS011;50516;52.272;5.136;2022-12-10T11:23:36;64.78;;;30.05;;
64199;SDS011;50516;52.272;5.136;2022-12-10T11:34:17;68.20;;;30.60;;
64199;SDS011;50516;52.272;5.136;2022-12-10T11:39:31;71.15;;;31.70;;
64199;SDS011;50516;52.272;5.136;2022-12-10T11:42:10;90.28;;;34.17;;
64199;SDS011;50516;52.272;5.136;2022-12-10T11:44:59;79.93;;;30.90;;
64199;SDS011;50516;52.272;5.136;2022-12-10T11:47:57;71.70;;;31.80;;
64199;SDS011;50516;52.272;5.136;2022-12-10T12:09:11;76.07;;;32.75;;
64199;SDS011;50516;52.272;5.136;2022-12-10T12:14:34;80.10;;;31.80;;
64199;SDS011;50516;52.272;5.136;2022-12-10T12:19:59;71.15;;;30.35;;
64199;SDS011;50516;52.272;5.136;2022-12-10T12:22:29;70.88;;;30.85;;
64199;SDS011;50516;52.272;5.136;2022-12-10T12:25:22;73.00;;;30.52;;
64199;SDS011;50516;52.272;5.136;2022-12-10T12:27:53;74.78;;;31.67;;
64199;SDS011;50516;52.272;5.136;2022-12-10T12:30:25;74.40;;;31.15;;
64199;SDS011;50516;52.272;5.136;2022-12-10T12:35:46;77.68;;;30.05;;
64199;SDS011;50516;52.272;5.136;2022-12-10T12:38:21;73.93;;;29.50;;
64199;SDS011;50516;52.272;5.136;2022-12-10T12:40:51;77.15;;;31.90;;
64199;SDS011;50516;52.272;5.136;2022-12-10T12:43:27;77.07;;;30.33;;
64199;SDS011;50516;52.272;5.136;2022-12-10T12:46:05;74.30;;;30.08;;
64199;SDS011;50516;52.272;5.136;2022-12-10T12:48:55;73.07;;;28.92;;
64199;SDS011;50516;52.272;5.136;2022-12-10T12:54:12;67.15;;;30.13;;
64199;SDS011;50516;52.272;5.136;2022-12-10T13:01:53;69.57;;;30.20;;
64199;SDS011;50516;52.272;5.136;2022-12-10T13:04:25;78.60;;;30.73;;
64199;SDS011;50516;52.272;5.136;2022-12-10T13:10:07;66.45;;;27.27;;
64199;SDS011;50516;52.272;5.136;2022-12-10T13:12:51;63.30;;;28.35;;
64199;SDS011;50516;52.272;5.136;2022-12-10T13:18:04;66.00;;;28.10;;
64199;SDS011;50516;52.272;5.136;2022-12-10T13:31:07;61.45;;;27.00;;
64199;SDS011;50516;52.272;5.136;2022-12-10T13:33:49;61.80;;;23.35;;
64199;SDS011;50516;52.272;5.136;2022-12-10T13:36:25;68.50;;;27.42;;
64199;SDS011;50516;52.272;5.136;2022-12-10T13:39:12;69.68;;;27.65;;
64199;SDS011;50516;52.272;5.136;2022-12-10T13:53:00;55.97;;;24.77;;
64199;SDS011;50516;52.272;5.136;2022-12-10T14:07:44;60.78;;;26.02;;
64199;SDS011;50516;52.272;5.136;2022-12-10T14:10:15;57.22;;;25.85;;
64199;SDS011;50516;52.272;5.136;2022-12-10T14:12:43;52.97;;;22.48;;
64199;SDS011;50516;52.272;5.136;2022-12-10T14:15:20;66.72;;;25.92;;
64199;SDS011;50516;52.272;5.136;2022-12-10T14:17:49;55.40;;;24.10;;
64199;SDS011;50516;52.272;5.136;2022-12-10T14:20:25;59.33;;;24.45;;
64199;SDS011;50516;52.272;5.136;2022-12-10T14:22:51;57.17;;;25.45;;
64199;SDS011;50516;52.272;5.136;2022-12-10T14:25:41;63.40;;;26.50;;
64199;SDS011;50516;52.272;5.136;2022-12-10T14:28:12;67.78;;;26.83;;
64199;SDS011;50516;52.272;5.136;2022-12-10T14:30:42;52.72;;;25.25;;
64199;SDS011;50516;52.272;5.136;2022-12-10T14:33:09;54.17;;;23.45;;
64199;SDS011;50516;52.272;5.136;2022-12-10T14:35:40;53.80;;;24.77;;
64199;SDS011;50516;52.272;5.136;2022-12-10T14:38:13;65.28;;;26.20;;
64199;SDS011;50516;52.272;5.136;2022-12-10T14:40:55;70.63;;;26.83;;
64199;SDS011;50516;52.272;5.136;2022-12-10T14:43:21;70.38;;;25.70;;
64199;SDS011;50516;52.272;5.136;2022-12-10T14:45:51;62.67;;;26.52;;
64199;SDS011;50516;52.272;5.136;2022-12-10T14:48:20;64.97;;;27.95;;
64199;SDS011;50516;52.272;5.136;2022-12-10T14:50:49;67.65;;;28.02;;
64199;SDS011;50516;52.272;5.136;2022-12-10T14:53:25;58.58;;;26.67;;
64199;SDS011;50516;52.272;5.136;2022-12-10T14:56:27;63.90;;;28.35;;
64199;SDS011;50516;52.272;5.136;2022-12-10T14:58:52;72.05;;;27.90;;
64199;SDS011;50516;52.272;5.136;2022-12-10T15:01:27;70.30;;;29.58;;
64199;SDS011;50516;52.272;5.136;2022-12-10T15:03:55;68.18;;;27.58;;
64199;SDS011;50516;52.272;5.136;2022-12-10T15:06:35;69.88;;;27.83;;
64199;SDS011;50516;52.272;5.136;2022-12-10T15:09:05;73.10;;;30.67;;
64199;SDS011;50516;52.272;5.136;2022-12-10T15:11:36;73.90;;;30.42;;
64199;SDS011;50516;52.272;5.136;2022-12-10T15:14:02;75.00;;;29.77;;
64199;SDS011;50516;52.272;5.136;2022-12-10T15:16:37;79.43;;;29.13;;
64199;SDS011;50516;52.272;5.136;2022-12-10T15:19:21;84.22;;;30.90;;
64199;SDS011;50516;52.272;5.136;2022-12-10T15:21:50;68.50;;;29.13;;
64199;SDS011;50516;52.272;5.136;2022-12-10T15:24:35;73.28;;;28.23;;
64199;SDS011;50516;52.272;5.136;2022-12-10T15:27:13;82.97;;;31.08;;
64199;SDS011;50516;52.272;5.136;2022-12-10T15:29:49;70.55;;;29.02;;
64199;SDS011;50516;52.272;5.136;2022-12-10T15:32:26;73.80;;;27.63;;
64199;SDS011;50516;52.272;5.136;2022-12-10T15:34:58;67.13;;;28.10;;
64199;SDS011;50516;52.272;5.136;2022-12-10T15:37:32;70.95;;;27.58;;
64199;SDS011;50516;52.272;5.136;2022-12-10T15:40:01;72.68;;;28.27;;
64199;SDS011;50516;52.272;5.136;2022-12-10T15:44:59;68.47;;;27.60;;
64199;SDS011;50516;52.272;5.136;2022-12-10T15:47:27;73.15;;;28.85;;
64199;SDS011;50516;52.272;5.136;2022-12-10T15:49:54;64.05;;;29.17;;
64199;SDS011;50516;52.272;5.136;2022-12-10T15:52:27;62.33;;;25.33;;
64199;SDS011;50516;52.272;5.136;2022-12-10T15:54:54;79.78;;;27.67;;
64199;SDS011;50516;52.272;5.136;2022-12-10T15:57:22;68.45;;;28.80;;
64199;SDS011;50516;52.272;5.136;2022-12-10T15:59:48;66.75;;;27.15;;
64199;SDS011;50516;52.272;5.136;2022-12-10T16:05:00;82.75;;;30.70;;
64199;SDS011;50516;52.272;5.136;2022-12-10T16:07:29;76.10;;;28.45;;
64199;SDS011;50516;52.272;5.136;2022-12-10T16:09:54;79.18;;;29.23;;
64199;SDS011;50516;52.272;5.136;2022-12-10T16:12:19;79.93;;;30.20;;
64199;SDS011;50516;52.272;5.136;2022-12-10T16:14:49;79.78;;;30.23;;
64199;SDS011;50516;52.272;5.136;2022-12-10T16:17:20;82.47;;;28.95;;
64199;SDS011;50516;52.272;5.136;2022-12-10T16:19:45;77.53;;;30.02;;
64199;SDS011;50516;52.272;5.136;2022-12-10T16:22:11;77.05;;;32.45;;
64199;SDS011;50516;52.272;5.136;2022-12-10T16:24:36;80.10;;;29.10;;
64199;SDS011;50516;52.272;5.136;2022-12-10T16:27:04;86.90;;;31.27;;
64199;SDS011;50516;52.272;5.136;2022-12-10T16:29:36;89.00;;;32.07;;
64199;SDS011;50516;52.272;5.136;2022-12-10T16:32:02;87.78;;;31.35;;
64199;SDS011;50516;52.272;5.136;2022-12-10T16:34:28;85.65;;;31.45;;
64199;SDS011;50516;52.272;5.136;2022-12-10T16:36:54;86.80;;;29.33;;